sensor_id;sensor_type;location;lat;lon;timestamp;P1;durP1;ratioP1;P2;durP2;ratioP2
36379;SDS011;22411;53.016;18.632;2023-08-21T00:01:36;9.45;;;8.55;;
36379;SDS011;22411;53.016;18.632;2023-08-21T00:04:02;10.00;;;9.00;;
36379;SDS011;22411;53.016;18.632;2023-08-21T00:06:28;10.27;;;9.30;;
36379;SDS011;22411;53.016;18.632;2023-08-21T00:08:54;10.13;;;9.00;;
36379;SDS011;22411;53.016;18.632;2023-08-21T00:11:20;10.98;;;9.07;;
36379;SDS011;22411;53.016;18.632;2023-08-21T00:13:45;10.32;;;9.35;;
36379;SDS011;22411;53.016;18.632;2023-08-21T00:16:14;9.82;;;8.00;;
36379;SDS011;22411;53.016;18.632;2023-08-21T00:18:39;10.00;;;8.77;;
36379;SDS011;22411;53.016;18.632;2023-08-21T00:21:05;11.88;;;9.60;;
36379;SDS011;22411;53.016;18.632;2023-08-21T00:23:31;11.55;;;9.82;;
36379;SDS011;22411;53.016;18.632;2023-08-21T00:25:56;11.40;;;10.20;;
36379;SDS011;22411;53.016;18.632;2023-08-21T00:28:22;10.45;;;9.48;;
36379;SDS011;22411;53.016;18.632;2023-08-21T00:30:48;11.70;;;10.30;;
36379;SDS011;22411;53.016;18.632;2023-08-21T00:33:14;13.40;;;11.20;;
36379;SDS011;22411;53.016;18.632;2023-08-21T00:35:39;11.38;;;10.27;;
36379;SDS011;22411;53.016;18.632;2023-08-21T00:38:05;11.50;;;9.32;;
36379;SDS011;22411;53.016;18.632;2023-08-21T00:40:31;13.73;;;10.05;;
36379;SDS011;22411;53.016;18.632;2023-08-21T00:42:57;11.88;;;10.68;;
36379;SDS011;22411;53.016;18.632;2023-08-21T00:45:23;11.40;;;10.15;;
36379;SDS011;22411;53.016;18.632;2023-08-21T00:47:48;12.32;;;10.68;;
36379;SDS011;22411;53.016;18.632;2023-08-21T00:50:14;11.52;;;10.45;;
36379;SDS011;22411;53.016;18.632;2023-08-21T00:52:40;11.82;;;10.63;;
36379;SDS011;22411;53.016;18.632;2023-08-21T00:55:10;11.75;;;10.55;;
36379;SDS011;22411;53.016;18.632;2023-08-21T00:57:37;11.75;;;10.55;;
36379;SDS011;22411;53.016;18.632;2023-08-21T01:00:04;10.38;;;9.30;;
36379;SDS011;22411;53.016;18.632;2023-08-21T01:02:30;13.65;;;10.40;;
36379;SDS011;22411;53.016;18.632;2023-08-21T01:04:56;12.50;;;10.88;;
36379;SDS011;22411;53.016;18.632;2023-08-21T01:07:21;13.52;;;10.38;;
36379;SDS011;22411;53.016;18.632;2023-08-21T01:12:44;11.38;;;10.20;;
36379;SDS011;22411;53.016;18.632;2023-08-21T01:15:21;10.43;;;9.43;;
36379;SDS011;22411;53.016;18.632;2023-08-21T01:17:47;9.18;;;8.38;;
36379;SDS011;22411;53.016;18.632;2023-08-21T01:20:14;9.30;;;8.45;;
36379;SDS011;22411;53.016;18.632;2023-08-21T01:22:41;11.05;;;9.65;;
36379;SDS011;22411;53.016;18.632;2023-08-21T01:25:15;10.70;;;9.60;;
36379;SDS011;22411;53.016;18.632;2023-08-21T01:27:42;9.93;;;8.93;;
36379;SDS011;22411;53.016;18.632;2023-08-21T01:30:10;10.00;;;8.75;;
36379;SDS011;22411;53.016;18.632;2023-08-21T01:32:48;10.32;;;9.32;;
36379;SDS011;22411;53.016;18.632;2023-08-21T01:35:22;9.68;;;8.73;;
36379;SDS011;22411;53.016;18.632;2023-08-21T01:37:50;8.63;;;7.82;;
36379;SDS011;22411;53.016;18.632;2023-08-21T01:40:23;9.57;;;8.55;;
36379;SDS011;22411;53.016;18.632;2023-08-21T01:42:49;7.93;;;7.18;;
36379;SDS011;22411;53.016;18.632;2023-08-21T01:45:17;8.40;;;7.53;;
36379;SDS011;22411;53.016;18.632;2023-08-21T01:47:43;8.43;;;7.45;;
36379;SDS011;22411;53.016;18.632;2023-08-21T01:50:09;7.47;;;6.88;;
36379;SDS011;22411;53.016;18.632;2023-08-21T01:52:34;11.70;;;8.15;;
36379;SDS011;22411;53.016;18.632;2023-08-21T01:55:00;7.80;;;6.90;;
36379;SDS011;22411;53.016;18.632;2023-08-21T01:57:26;7.82;;;7.13;;
36379;SDS011;22411;53.016;18.632;2023-08-21T01:59:51;7.55;;;6.85;;
36379;SDS011;22411;53.016;18.632;2023-08-21T02:02:17;9.85;;;7.90;;
36379;SDS011;22411;53.016;18.632;2023-08-21T02:04:43;7.32;;;6.65;;
36379;SDS011;22411;53.016;18.632;2023-08-21T02:07:08;8.70;;;7.07;;
36379;SDS011;22411;53.016;18.632;2023-08-21T02:09:34;8.30;;;7.47;;
36379;SDS011;22411;53.016;18.632;2023-08-21T02:12:00;6.22;;;5.65;;
36379;SDS011;22411;53.016;18.632;2023-08-21T02:14:26;7.63;;;6.82;;
36379;SDS011;22411;53.016;18.632;2023-08-21T02:16:51;7.85;;;6.97;;
36379;SDS011;22411;53.016;18.632;2023-08-21T02:19:17;6.55;;;5.95;;
36379;SDS011;22411;53.016;18.632;2023-08-21T02:21:43;9.73;;;6.90;;
36379;SDS011;22411;53.016;18.632;2023-08-21T02:24:09;9.25;;;7.68;;
36379;SDS011;22411;53.016;18.632;2023-08-21T02:26:34;7.15;;;6.45;;
36379;SDS011;22411;53.016;18.632;2023-08-21T02:29:00;9.13;;;7.40;;
36379;SDS011;22411;53.016;18.632;2023-08-21T02:31:25;7.85;;;7.05;;
36379;SDS011;22411;53.016;18.632;2023-08-21T02:33:51;8.70;;;7.07;;
36379;SDS011;22411;53.016;18.632;2023-08-21T02:36:17;7.45;;;6.40;;
36379;SDS011;22411;53.016;18.632;2023-08-21T02:38:43;8.85;;;6.53;;
36379;SDS011;22411;53.016;18.632;2023-08-21T02:41:08;9.95;;;7.80;;
36379;SDS011;22411;53.016;18.632;2023-08-21T02:43:34;8.15;;;7.35;;
36379;SDS011;22411;53.016;18.632;2023-08-21T02:45:59;6.95;;;6.25;;
36379;SDS011;22411;53.016;18.632;2023-08-21T02:48:25;10.02;;;6.50;;
36379;SDS011;22411;53.016;18.632;2023-08-21T02:50:51;9.45;;;7.22;;
36379;SDS011;22411;53.016;18.632;2023-08-21T02:53:17;9.63;;;7.32;;
36379;SDS011;22411;53.016;18.632;2023-08-21T02:55:42;9.20;;;7.47;;
36379;SDS011;22411;53.016;18.632;2023-08-21T02:58:08;9.80;;;7.72;;
36379;SDS011;22411;53.016;18.632;2023-08-21T03:00:34;8.85;;;7.78;;
36379;SDS011;22411;53.016;18.632;2023-08-21T03:03:00;8.40;;;7.60;;
36379;SDS011;22411;53.016;18.632;2023-08-21T03:05:25;8.45;;;7.53;;
36379;SDS011;22411;53.016;18.632;2023-08-21T03:07:51;8.73;;;7.85;;
36379;SDS011;22411;53.016;18.632;2023-08-21T03:10:17;10.93;;;8.32;;
36379;SDS011;22411;53.016;18.632;2023-08-21T03:12:44;9.35;;;7.43;;
36379;SDS011;22411;53.016;18.632;2023-08-21T03:15:09;10.32;;;7.82;;
36379;SDS011;22411;53.016;18.632;2023-08-21T03:17:35;11.70;;;8.95;;
36379;SDS011;22411;53.016;18.632;2023-08-21T03:20:01;10.13;;;7.85;;
36379;SDS011;22411;53.016;18.632;2023-08-21T03:22:30;9.65;;;8.32;;
36379;SDS011;22411;53.016;18.632;2023-08-21T03:24:57;10.50;;;8.25;;
36379;SDS011;22411;53.016;18.632;2023-08-21T03:27:24;8.50;;;7.55;;
36379;SDS011;22411;53.016;18.632;2023-08-21T03:29:50;8.55;;;7.50;;
36379;SDS011;22411;53.016;18.632;2023-08-21T03:32:16;9.45;;;7.78;;
36379;SDS011;22411;53.016;18.632;2023-08-21T03:34:42;10.38;;;7.95;;
36379;SDS011;22411;53.016;18.632;2023-08-21T03:37:08;9.18;;;8.27;;
36379;SDS011;22411;53.016;18.632;2023-08-21T03:39:34;11.02;;;7.85;;
36379;SDS011;22411;53.016;18.632;2023-08-21T03:42:00;9.95;;;7.80;;
36379;SDS011;22411;53.016;18.632;2023-08-21T03:44:25;8.75;;;7.13;;
36379;SDS011;22411;53.016;18.632;2023-08-21T03:46:51;9.02;;;7.32;;
36379;SDS011;22411;53.016;18.632;2023-08-21T03:49:16;11.85;;;6.78;;
36379;SDS011;22411;53.016;18.632;2023-08-21T03:51:42;11.73;;;6.85;;
36379;SDS011;22411;53.016;18.632;2023-08-21T03:54:08;7.40;;;5.68;;
36379;SDS011;22411;53.016;18.632;2023-08-21T03:56:34;6.15;;;5.00;;
36379;SDS011;22411;53.016;18.632;2023-08-21T03:59:00;6.75;;;5.47;;
36379;SDS011;22411;53.016;18.632;2023-08-21T04:01:26;6.47;;;5.47;;
36379;SDS011;22411;53.016;18.632;2023-08-21T04:03:51;7.30;;;5.40;;
36379;SDS011;22411;53.016;18.632;2023-08-21T04:06:17;6.75;;;5.57;;
36379;SDS011;22411;53.016;18.632;2023-08-21T04:08:43;8.38;;;5.28;;
36379;SDS011;22411;53.016;18.632;2023-08-21T04:11:09;6.13;;;5.25;;
36379;SDS011;22411;53.016;18.632;2023-08-21T04:13:34;7.13;;;5.45;;
36379;SDS011;22411;53.016;18.632;2023-08-21T04:16:00;9.38;;;5.22;;
36379;SDS011;22411;53.016;18.632;2023-08-21T04:18:26;7.90;;;5.00;;
36379;SDS011;22411;53.016;18.632;2023-08-21T04:20:52;7.93;;;5.63;;
36379;SDS011;22411;53.016;18.632;2023-08-21T04:23:17;6.70;;;5.15;;
36379;SDS011;22411;53.016;18.632;2023-08-21T04:25:43;8.40;;;5.53;;
36379;SDS011;22411;53.016;18.632;2023-08-21T04:28:09;4.95;;;4.10;;
36379;SDS011;22411;53.016;18.632;2023-08-21T04:30:34;5.90;;;4.80;;
36379;SDS011;22411;53.016;18.632;2023-08-21T04:33:00;6.03;;;4.40;;
36379;SDS011;22411;53.016;18.632;2023-08-21T04:35:26;7.70;;;5.28;;
36379;SDS011;22411;53.016;18.632;2023-08-21T04:37:51;6.90;;;4.88;;
36379;SDS011;22411;53.016;18.632;2023-08-21T04:40:17;6.40;;;4.90;;
36379;SDS011;22411;53.016;18.632;2023-08-21T04:42:46;6.63;;;4.88;;
36379;SDS011;22411;53.016;18.632;2023-08-21T04:45:12;5.50;;;4.68;;
36379;SDS011;22411;53.016;18.632;2023-08-21T04:47:37;6.20;;;4.97;;
36379;SDS011;22411;53.016;18.632;2023-08-21T04:50:03;5.43;;;4.75;;
36379;SDS011;22411;53.016;18.632;2023-08-21T04:52:29;8.57;;;5.07;;
36379;SDS011;22411;53.016;18.632;2023-08-21T04:54:55;7.32;;;4.50;;
36379;SDS011;22411;53.016;18.632;2023-08-21T04:57:21;8.70;;;6.13;;
36379;SDS011;22411;53.016;18.632;2023-08-21T04:59:47;7.60;;;5.78;;
36379;SDS011;22411;53.016;18.632;2023-08-21T05:02:13;10.18;;;5.85;;
36379;SDS011;22411;53.016;18.632;2023-08-21T05:04:39;8.50;;;5.70;;
36379;SDS011;22411;53.016;18.632;2023-08-21T05:07:05;7.05;;;5.18;;
36379;SDS011;22411;53.016;18.632;2023-08-21T05:09:31;6.97;;;5.85;;
36379;SDS011;22411;53.016;18.632;2023-08-21T05:11:57;6.95;;;4.90;;
36379;SDS011;22411;53.016;18.632;2023-08-21T05:14:23;6.68;;;5.55;;
36379;SDS011;22411;53.016;18.632;2023-08-21T05:16:49;6.65;;;5.00;;
36379;SDS011;22411;53.016;18.632;2023-08-21T05:19:16;6.20;;;4.78;;
36379;SDS011;22411;53.016;18.632;2023-08-21T05:21:41;9.07;;;5.63;;
36379;SDS011;22411;53.016;18.632;2023-08-21T05:24:07;6.55;;;5.75;;
36379;SDS011;22411;53.016;18.632;2023-08-21T05:26:35;7.63;;;5.00;;
36379;SDS011;22411;53.016;18.632;2023-08-21T05:29:01;5.65;;;4.90;;
36379;SDS011;22411;53.016;18.632;2023-08-21T05:31:26;6.68;;;5.38;;
36379;SDS011;22411;53.016;18.632;2023-08-21T05:33:52;7.18;;;3.42;;
36379;SDS011;22411;53.016;18.632;2023-08-21T05:36:18;5.72;;;3.10;;
36379;SDS011;22411;53.016;18.632;2023-08-21T05:38:43;5.22;;;3.17;;
36379;SDS011;22411;53.016;18.632;2023-08-21T05:41:09;4.07;;;3.00;;
36379;SDS011;22411;53.016;18.632;2023-08-21T05:43:35;4.53;;;2.75;;
36379;SDS011;22411;53.016;18.632;2023-08-21T05:46:01;3.90;;;3.47;;
36379;SDS011;22411;53.016;18.632;2023-08-21T05:48:27;5.40;;;3.35;;
36379;SDS011;22411;53.016;18.632;2023-08-21T05:50:52;3.80;;;3.10;;
36379;SDS011;22411;53.016;18.632;2023-08-21T05:53:18;9.60;;;3.75;;
36379;SDS011;22411;53.016;18.632;2023-08-21T05:55:44;7.85;;;3.00;;
36379;SDS011;22411;53.016;18.632;2023-08-21T05:58:10;7.20;;;3.38;;
36379;SDS011;22411;53.016;18.632;2023-08-21T06:00:37;5.20;;;2.60;;
36379;SDS011;22411;53.016;18.632;2023-08-21T06:03:04;6.00;;;3.00;;
36379;SDS011;22411;53.016;18.632;2023-08-21T06:05:30;4.97;;;2.88;;
36379;SDS011;22411;53.016;18.632;2023-08-21T06:07:56;5.72;;;3.28;;
36379;SDS011;22411;53.016;18.632;2023-08-21T06:10:22;3.03;;;2.45;;
36379;SDS011;22411;53.016;18.632;2023-08-21T06:12:48;5.80;;;2.03;;
36379;SDS011;22411;53.016;18.632;2023-08-21T06:15:14;4.97;;;2.33;;
36379;SDS011;22411;53.016;18.632;2023-08-21T06:17:40;3.90;;;2.10;;
36379;SDS011;22411;53.016;18.632;2023-08-21T06:20:07;4.40;;;2.25;;
36379;SDS011;22411;53.016;18.632;2023-08-21T06:22:36;5.25;;;2.33;;
36379;SDS011;22411;53.016;18.632;2023-08-21T06:25:02;4.70;;;1.95;;
36379;SDS011;22411;53.016;18.632;2023-08-21T06:27:28;5.63;;;2.47;;
36379;SDS011;22411;53.016;18.632;2023-08-21T06:29:54;3.75;;;1.63;;
36379;SDS011;22411;53.016;18.632;2023-08-21T06:32:20;3.53;;;2.40;;
36379;SDS011;22411;53.016;18.632;2023-08-21T06:34:45;4.47;;;2.33;;
36379;SDS011;22411;53.016;18.632;2023-08-21T06:37:11;4.40;;;2.35;;
36379;SDS011;22411;53.016;18.632;2023-08-21T06:39:38;3.45;;;2.10;;
36379;SDS011;22411;53.016;18.632;2023-08-21T06:42:04;3.97;;;2.08;;
36379;SDS011;22411;53.016;18.632;2023-08-21T06:44:30;3.60;;;1.85;;
36379;SDS011;22411;53.016;18.632;2023-08-21T06:46:56;4.00;;;2.05;;
36379;SDS011;22411;53.016;18.632;2023-08-21T06:49:21;3.45;;;2.03;;
36379;SDS011;22411;53.016;18.632;2023-08-21T06:51:47;4.40;;;1.65;;
36379;SDS011;22411;53.016;18.632;2023-08-21T06:54:13;2.92;;;1.35;;
36379;SDS011;22411;53.016;18.632;2023-08-21T06:56:39;5.95;;;1.60;;
36379;SDS011;22411;53.016;18.632;2023-08-21T06:59:04;6.00;;;2.03;;
36379;SDS011;22411;53.016;18.632;2023-08-21T07:01:30;3.30;;;1.77;;
36379;SDS011;22411;53.016;18.632;2023-08-21T07:03:56;3.80;;;1.95;;
36379;SDS011;22411;53.016;18.632;2023-08-21T07:06:21;6.05;;;2.38;;
36379;SDS011;22411;53.016;18.632;2023-08-21T07:08:47;5.63;;;2.10;;
36379;SDS011;22411;53.016;18.632;2023-08-21T07:11:13;3.55;;;1.75;;
36379;SDS011;22411;53.016;18.632;2023-08-21T07:13:38;3.20;;;1.90;;
36379;SDS011;22411;53.016;18.632;2023-08-21T07:16:04;2.47;;;1.20;;
36379;SDS011;22411;53.016;18.632;2023-08-21T07:18:34;5.25;;;1.77;;
36379;SDS011;22411;53.016;18.632;2023-08-21T07:21:01;2.40;;;1.40;;
36379;SDS011;22411;53.016;18.632;2023-08-21T07:23:28;4.18;;;1.30;;
36379;SDS011;22411;53.016;18.632;2023-08-21T07:25:54;2.80;;;1.00;;
36379;SDS011;22411;53.016;18.632;2023-08-21T07:28:20;6.28;;;1.50;;
36379;SDS011;22411;53.016;18.632;2023-08-21T07:30:46;4.22;;;1.13;;
36379;SDS011;22411;53.016;18.632;2023-08-21T07:33:11;2.75;;;1.70;;
36379;SDS011;22411;53.016;18.632;2023-08-21T07:35:37;2.38;;;1.40;;
36379;SDS011;22411;53.016;18.632;2023-08-21T07:38:03;3.92;;;1.95;;
36379;SDS011;22411;53.016;18.632;2023-08-21T07:40:29;3.55;;;0.77;;
36379;SDS011;22411;53.016;18.632;2023-08-21T07:42:54;2.28;;;0.90;;
36379;SDS011;22411;53.016;18.632;2023-08-21T07:45:20;3.25;;;0.95;;
36379;SDS011;22411;53.016;18.632;2023-08-21T07:47:46;1.88;;;0.75;;
36379;SDS011;22411;53.016;18.632;2023-08-21T07:50:12;2.45;;;0.75;;
36379;SDS011;22411;53.016;18.632;2023-08-21T07:52:39;2.28;;;0.98;;
36379;SDS011;22411;53.016;18.632;2023-08-21T07:55:05;1.92;;;0.60;;
36379;SDS011;22411;53.016;18.632;2023-08-21T07:57:31;0.93;;;0.30;;
36379;SDS011;22411;53.016;18.632;2023-08-21T07:59:57;2.88;;;0.65;;
36379;SDS011;22411;53.016;18.632;2023-08-21T08:02:23;2.05;;;0.45;;
36379;SDS011;22411;53.016;18.632;2023-08-21T08:04:49;2.45;;;0.60;;
36379;SDS011;22411;53.016;18.632;2023-08-21T08:07:15;1.40;;;0.40;;
36379;SDS011;22411;53.016;18.632;2023-08-21T08:09:40;2.03;;;0.80;;
36379;SDS011;22411;53.016;18.632;2023-08-21T08:12:06;1.35;;;0.40;;
36379;SDS011;22411;53.016;18.632;2023-08-21T08:14:32;1.77;;;0.22;;
36379;SDS011;22411;53.016;18.632;2023-08-21T08:16:58;1.02;;;0.38;;
36379;SDS011;22411;53.016;18.632;2023-08-21T08:19:24;1.02;;;0.20;;
36379;SDS011;22411;53.016;18.632;2023-08-21T08:21:49;2.28;;;0.45;;
36379;SDS011;22411;53.016;18.632;2023-08-21T08:24:15;1.20;;;0.63;;
36379;SDS011;22411;53.016;18.632;2023-08-21T08:26:41;1.15;;;0.30;;
36379;SDS011;22411;53.016;18.632;2023-08-21T08:29:08;2.78;;;0.30;;
36379;SDS011;22411;53.016;18.632;2023-08-21T08:31:34;1.55;;;0.30;;
36379;SDS011;22411;53.016;18.632;2023-08-21T08:34:00;1.10;;;0.55;;
36379;SDS011;22411;53.016;18.632;2023-08-21T08:36:26;1.88;;;0.40;;
36379;SDS011;22411;53.016;18.632;2023-08-21T08:38:52;4.95;;;1.42;;
36379;SDS011;22411;53.016;18.632;2023-08-21T08:41:21;1.50;;;0.50;;
36379;SDS011;22411;53.016;18.632;2023-08-21T08:43:50;1.08;;;0.38;;
36379;SDS011;22411;53.016;18.632;2023-08-21T08:46:21;1.55;;;0.30;;
36379;SDS011;22411;53.016;18.632;2023-08-21T08:48:47;0.73;;;0.30;;
36379;SDS011;22411;53.016;18.632;2023-08-21T08:51:12;2.17;;;0.30;;
36379;SDS011;22411;53.016;18.632;2023-08-21T08:53:38;1.23;;;0.30;;
36379;SDS011;22411;53.016;18.632;2023-08-21T08:56:04;1.33;;;0.20;;
36379;SDS011;22411;53.016;18.632;2023-08-21T08:58:30;1.17;;;0.20;;
36379;SDS011;22411;53.016;18.632;2023-08-21T09:00:56;1.77;;;0.43;;
36379;SDS011;22411;53.016;18.632;2023-08-21T09:03:22;1.17;;;0.20;;
36379;SDS011;22411;53.016;18.632;2023-08-21T09:05:47;1.80;;;0.20;;
36379;SDS011;22411;53.016;18.632;2023-08-21T09:08:14;1.73;;;0.30;;
36379;SDS011;22411;53.016;18.632;2023-08-21T09:10:41;1.27;;;0.20;;
36379;SDS011;22411;53.016;18.632;2023-08-21T09:13:08;1.83;;;0.20;;
36379;SDS011;22411;53.016;18.632;2023-08-21T09:15:37;2.10;;;0.70;;
36379;SDS011;22411;53.016;18.632;2023-08-21T09:18:04;0.88;;;0.20;;
36379;SDS011;22411;53.016;18.632;2023-08-21T09:20:34;1.45;;;0.20;;
36379;SDS011;22411;53.016;18.632;2023-08-21T09:23:00;0.90;;;0.20;;
36379;SDS011;22411;53.016;18.632;2023-08-21T09:25:26;1.42;;;0.20;;
36379;SDS011;22411;53.016;18.632;2023-08-21T09:27:52;2.33;;;0.20;;
36379;SDS011;22411;53.016;18.632;2023-08-21T09:30:21;1.50;;;0.20;;
36379;SDS011;22411;53.016;18.632;2023-08-21T09:32:57;1.65;;;0.20;;
36379;SDS011;22411;53.016;18.632;2023-08-21T09:35:26;1.85;;;0.32;;
36379;SDS011;22411;53.016;18.632;2023-08-21T09:37:52;1.90;;;0.30;;
36379;SDS011;22411;53.016;18.632;2023-08-21T09:40:18;0.93;;;0.20;;
36379;SDS011;22411;53.016;18.632;2023-08-21T09:42:45;0.80;;;0.10;;
36379;SDS011;22411;53.016;18.632;2023-08-21T09:45:11;1.80;;;0.20;;
36379;SDS011;22411;53.016;18.632;2023-08-21T09:47:37;1.23;;;0.20;;
36379;SDS011;22411;53.016;18.632;2023-08-21T09:50:04;1.15;;;0.28;;
36379;SDS011;22411;53.016;18.632;2023-08-21T09:52:31;1.15;;;0.30;;
36379;SDS011;22411;53.016;18.632;2023-08-21T09:54:56;2.35;;;0.47;;
36379;SDS011;22411;53.016;18.632;2023-08-21T09:57:23;1.20;;;0.20;;
36379;SDS011;22411;53.016;18.632;2023-08-21T09:59:51;1.13;;;0.20;;
36379;SDS011;22411;53.016;18.632;2023-08-21T10:02:20;1.88;;;0.10;;
36379;SDS011;22411;53.016;18.632;2023-08-21T10:04:46;1.48;;;0.20;;
36379;SDS011;22411;53.016;18.632;2023-08-21T10:07:14;0.95;;;0.25;;
36379;SDS011;22411;53.016;18.632;2023-08-21T10:09:42;2.13;;;0.10;;
36379;SDS011;22411;53.016;18.632;2023-08-21T10:12:08;1.10;;;0.20;;
36379;SDS011;22411;53.016;18.632;2023-08-21T10:14:35;0.70;;;0.10;;
36379;SDS011;22411;53.016;18.632;2023-08-21T10:17:01;0.70;;;0.10;;
36379;SDS011;22411;53.016;18.632;2023-08-21T10:19:31;1.13;;;0.20;;
36379;SDS011;22411;53.016;18.632;2023-08-21T10:21:57;1.27;;;0.10;;
36379;SDS011;22411;53.016;18.632;2023-08-21T10:24:27;2.05;;;0.20;;
36379;SDS011;22411;53.016;18.632;2023-08-21T10:26:58;0.90;;;0.10;;
36379;SDS011;22411;53.016;18.632;2023-08-21T10:29:25;0.50;;;0.10;;
36379;SDS011;22411;53.016;18.632;2023-08-21T10:31:58;1.20;;;0.20;;
36379;SDS011;22411;53.016;18.632;2023-08-21T10:34:37;0.77;;;0.15;;
36379;SDS011;22411;53.016;18.632;2023-08-21T10:37:04;1.30;;;0.10;;
36379;SDS011;22411;53.016;18.632;2023-08-21T10:39:31;1.30;;;0.55;;
36379;SDS011;22411;53.016;18.632;2023-08-21T10:42:03;1.70;;;0.20;;
36379;SDS011;22411;53.016;18.632;2023-08-21T10:44:33;0.90;;;0.17;;
36379;SDS011;22411;53.016;18.632;2023-08-21T10:47:18;1.98;;;0.30;;
36379;SDS011;22411;53.016;18.632;2023-08-21T10:49:49;2.25;;;0.40;;
36379;SDS011;22411;53.016;18.632;2023-08-21T10:54:50;0.60;;;0.10;;
36379;SDS011;22411;53.016;18.632;2023-08-21T10:57:17;1.30;;;0.30;;
36379;SDS011;22411;53.016;18.632;2023-08-21T10:59:53;0.75;;;0.15;;
36379;SDS011;22411;53.016;18.632;2023-08-21T11:02:21;1.65;;;0.20;;
36379;SDS011;22411;53.016;18.632;2023-08-21T11:04:48;2.15;;;0.10;;
36379;SDS011;22411;53.016;18.632;2023-08-21T11:07:14;2.78;;;0.30;;
36379;SDS011;22411;53.016;18.632;2023-08-21T11:09:40;1.10;;;0.20;;
36379;SDS011;22411;53.016;18.632;2023-08-21T11:12:09;2.25;;;0.20;;
36379;SDS011;22411;53.016;18.632;2023-08-21T11:14:37;1.60;;;0.20;;
36379;SDS011;22411;53.016;18.632;2023-08-21T11:17:03;2.67;;;0.25;;
36379;SDS011;22411;53.016;18.632;2023-08-21T11:19:30;1.00;;;0.20;;
36379;SDS011;22411;53.016;18.632;2023-08-21T11:21:59;1.55;;;0.30;;
36379;SDS011;22411;53.016;18.632;2023-08-21T11:27:08;1.17;;;0.28;;
36379;SDS011;22411;53.016;18.632;2023-08-21T11:29:39;1.02;;;0.43;;
36379;SDS011;22411;53.016;18.632;2023-08-21T11:32:24;5.55;;;0.57;;
36379;SDS011;22411;53.016;18.632;2023-08-21T11:34:57;1.10;;;0.10;;
36379;SDS011;22411;53.016;18.632;2023-08-21T11:37:24;1.20;;;0.20;;
36379;SDS011;22411;53.016;18.632;2023-08-21T11:39:51;1.27;;;0.68;;
36379;SDS011;22411;53.016;18.632;2023-08-21T11:42:22;0.60;;;0.22;;
36379;SDS011;22411;53.016;18.632;2023-08-21T11:44:53;1.65;;;0.30;;
36379;SDS011;22411;53.016;18.632;2023-08-21T11:47:22;2.75;;;0.25;;
36379;SDS011;22411;53.016;18.632;2023-08-21T11:49:49;1.95;;;0.43;;
36379;SDS011;22411;53.016;18.632;2023-08-21T11:52:19;1.20;;;0.22;;
36379;SDS011;22411;53.016;18.632;2023-08-21T11:54:51;1.98;;;0.60;;
36379;SDS011;22411;53.016;18.632;2023-08-21T11:57:19;1.35;;;0.22;;
36379;SDS011;22411;53.016;18.632;2023-08-21T11:59:52;0.75;;;0.20;;
36379;SDS011;22411;53.016;18.632;2023-08-21T12:02:26;2.58;;;0.40;;
36379;SDS011;22411;53.016;18.632;2023-08-21T12:07:20;1.60;;;0.43;;
36379;SDS011;22411;53.016;18.632;2023-08-21T12:09:46;1.23;;;0.50;;
36379;SDS011;22411;53.016;18.632;2023-08-21T12:12:14;1.85;;;0.30;;
36379;SDS011;22411;53.016;18.632;2023-08-21T12:14:40;2.67;;;0.40;;
36379;SDS011;22411;53.016;18.632;2023-08-21T12:17:06;0.95;;;0.28;;
36379;SDS011;22411;53.016;18.632;2023-08-21T12:19:32;2.75;;;0.57;;
36379;SDS011;22411;53.016;18.632;2023-08-21T12:21:58;1.25;;;0.30;;
36379;SDS011;22411;53.016;18.632;2023-08-21T12:24:24;1.60;;;0.30;;
36379;SDS011;22411;53.016;18.632;2023-08-21T12:26:50;1.35;;;0.30;;
36379;SDS011;22411;53.016;18.632;2023-08-21T12:29:15;1.42;;;0.30;;
36379;SDS011;22411;53.016;18.632;2023-08-21T12:31:41;0.93;;;0.30;;
36379;SDS011;22411;53.016;18.632;2023-08-21T12:34:07;1.38;;;0.40;;
36379;SDS011;22411;53.016;18.632;2023-08-21T12:36:34;3.47;;;0.30;;
36379;SDS011;22411;53.016;18.632;2023-08-21T12:39:02;1.20;;;0.30;;
36379;SDS011;22411;53.016;18.632;2023-08-21T12:41:29;1.40;;;0.30;;
36379;SDS011;22411;53.016;18.632;2023-08-21T12:43:55;1.73;;;0.30;;
36379;SDS011;22411;53.016;18.632;2023-08-21T12:46:20;1.73;;;0.52;;
36379;SDS011;22411;53.016;18.632;2023-08-21T12:48:46;1.40;;;0.35;;
36379;SDS011;22411;53.016;18.632;2023-08-21T12:51:12;1.33;;;0.30;;
36379;SDS011;22411;53.016;18.632;2023-08-21T12:53:38;1.38;;;0.30;;
36379;SDS011;22411;53.016;18.632;2023-08-21T12:56:03;2.90;;;0.40;;
36379;SDS011;22411;53.016;18.632;2023-08-21T12:58:29;1.23;;;0.35;;
36379;SDS011;22411;53.016;18.632;2023-08-21T13:00:55;3.03;;;0.47;;
36379;SDS011;22411;53.016;18.632;2023-08-21T13:03:21;1.88;;;0.82;;
36379;SDS011;22411;53.016;18.632;2023-08-21T13:05:47;1.67;;;0.35;;
36379;SDS011;22411;53.016;18.632;2023-08-21T13:08:12;1.10;;;0.30;;
36379;SDS011;22411;53.016;18.632;2023-08-21T13:10:39;2.22;;;0.55;;
36379;SDS011;22411;53.016;18.632;2023-08-21T13:13:05;1.98;;;0.40;;
36379;SDS011;22411;53.016;18.632;2023-08-21T13:15:30;1.77;;;0.45;;
36379;SDS011;22411;53.016;18.632;2023-08-21T13:17:57;2.42;;;0.88;;
36379;SDS011;22411;53.016;18.632;2023-08-21T13:20:23;0.88;;;0.30;;
36379;SDS011;22411;53.016;18.632;2023-08-21T13:22:51;1.35;;;0.30;;
36379;SDS011;22411;53.016;18.632;2023-08-21T13:25:18;2.20;;;0.40;;
36379;SDS011;22411;53.016;18.632;2023-08-21T13:27:45;3.17;;;0.30;;
36379;SDS011;22411;53.016;18.632;2023-08-21T13:30:12;0.98;;;0.30;;
36379;SDS011;22411;53.016;18.632;2023-08-21T13:32:38;2.53;;;0.93;;
36379;SDS011;22411;53.016;18.632;2023-08-21T13:35:04;9.82;;;0.50;;
36379;SDS011;22411;53.016;18.632;2023-08-21T13:37:34;1.70;;;0.25;;
36379;SDS011;22411;53.016;18.632;2023-08-21T13:40:00;3.10;;;0.30;;
36379;SDS011;22411;53.016;18.632;2023-08-21T13:42:34;4.70;;;0.50;;
36379;SDS011;22411;53.016;18.632;2023-08-21T13:45:03;3.45;;;0.40;;
36379;SDS011;22411;53.016;18.632;2023-08-21T13:47:29;3.53;;;0.38;;
36379;SDS011;22411;53.016;18.632;2023-08-21T13:49:55;2.30;;;0.50;;
36379;SDS011;22411;53.016;18.632;2023-08-21T13:52:20;1.42;;;0.50;;
36379;SDS011;22411;53.016;18.632;2023-08-21T13:54:46;2.55;;;0.30;;
36379;SDS011;22411;53.016;18.632;2023-08-21T13:57:12;1.65;;;0.38;;
36379;SDS011;22411;53.016;18.632;2023-08-21T13:59:38;3.65;;;0.40;;
36379;SDS011;22411;53.016;18.632;2023-08-21T14:02:03;1.80;;;0.40;;
36379;SDS011;22411;53.016;18.632;2023-08-21T14:04:29;5.28;;;0.50;;
36379;SDS011;22411;53.016;18.632;2023-08-21T14:06:57;2.17;;;0.57;;
36379;SDS011;22411;53.016;18.632;2023-08-21T14:09:23;1.05;;;0.25;;
36379;SDS011;22411;53.016;18.632;2023-08-21T14:11:48;9.60;;;1.20;;
36379;SDS011;22411;53.016;18.632;2023-08-21T14:14:14;2.78;;;0.57;;
36379;SDS011;22411;53.016;18.632;2023-08-21T14:16:40;2.42;;;0.80;;
36379;SDS011;22411;53.016;18.632;2023-08-21T14:19:05;2.53;;;0.50;;
36379;SDS011;22411;53.016;18.632;2023-08-21T14:21:31;1.35;;;0.50;;
36379;SDS011;22411;53.016;18.632;2023-08-21T14:23:57;2.00;;;0.55;;
36379;SDS011;22411;53.016;18.632;2023-08-21T14:26:22;1.10;;;0.30;;
36379;SDS011;22411;53.016;18.632;2023-08-21T14:28:48;2.00;;;0.35;;
36379;SDS011;22411;53.016;18.632;2023-08-21T14:31:16;3.08;;;0.82;;
36379;SDS011;22411;53.016;18.632;2023-08-21T14:33:42;2.75;;;0.50;;
36379;SDS011;22411;53.016;18.632;2023-08-21T14:36:08;3.17;;;0.40;;
36379;SDS011;22411;53.016;18.632;2023-08-21T14:38:34;2.15;;;0.50;;
36379;SDS011;22411;53.016;18.632;2023-08-21T14:41:00;1.85;;;0.40;;